Time;durP1;ratioP1;P1;durP2;ratioP2;P2;SDS_P1;SDS_P2;PMS_P1;PMS_P2;Temp;Humidity;BMP_temperature;BMP_pressure;BME280_temperature;BME280_humidity;BME280_pressure;Samples;Min_cycle;Max_cycle;Signal;HPM_P1;HPM_P2
2021/08/09 00:00:12;;;;;;;5.93;3.47;;;;;;;13.72;90.29;100800.81;696701;28;1696;-56
2021/08/09 00:00:33;;;;;;;7.97;3.95;;;;;;;13.71;90.09;100793.84;696078;28;1377;-53
2021/08/09 00:00:53;;;;;;;7.03;3.70;;;;;;;13.70;90.69;100798.22;695882;28;4563;-51
2021/08/09 00:01:13;;;;;;;7.53;3.87;;;;;;;13.68;90.33;100793.88;696264;28;1262;-54
2021/08/09 00:01:34;;;;;;;8.23;3.80;;;;;;;13.70;90.00;100797.38;696285;28;1317;-55
2021/08/09 00:01:54;;;;;;;5.77;4.03;;;;;;;13.68;90.87;100800.03;696274;28;1304;-54
2021/08/09 00:02:15;;;;;;;6.53;4.00;;;;;;;13.69;89.92;100800.88;693489;28;3329;-55
2021/08/09 00:02:35;;;;;;;5.73;3.77;;;;;;;13.67;91.12;100794.78;694426;28;4084;-52
2021/08/09 00:02:56;;;;;;;6.60;4.07;;;;;;;13.65;91.50;100793.94;694022;28;1351;-54
2021/08/09 00:03:16;;;;;;;6.90;3.93;;;;;;;13.63;90.97;100793.97;694278;28;1199;-55
2021/08/09 00:03:36;;;;;;;6.73;3.90;;;;;;;13.60;91.47;100791.38;695291;28;1456;-54
2021/08/09 00:03:57;;;;;;;7.38;3.92;;;;;;;13.59;91.51;100794.91;694621;28;4524;-51
2021/08/09 00:04:17;;;;;;;7.67;4.20;;;;;;;13.56;91.41;100790.56;696278;28;1439;-55
2021/08/09 00:04:39;;;;;;;6.85;3.97;;;;;;;13.58;90.69;100794.03;696175;28;1373;-52
2021/08/09 00:04:59;;;;;;;7.82;3.70;;;;;;;13.61;90.19;100793.13;697681;28;1983;-55
2021/08/09 00:05:20;;;;;;;6.37;3.90;;;;;;;13.64;90.29;100790.44;695526;28;2698;-52
2021/08/09 00:05:41;;;;;;;6.43;4.00;;;;;;;13.64;90.38;100790.44;696737;28;4754;-52
2021/08/09 00:06:02;;;;;;;6.70;3.88;;;;;;;13.65;90.44;100791.31;695718;28;1288;-52
2021/08/09 00:06:23;;;;;;;6.15;3.88;;;;;;;13.67;90.06;100792.16;696596;28;1338;-52
2021/08/09 00:06:44;;;;;;;6.72;3.97;;;;;;;13.69;90.39;100795.63;695448;28;4559;-52
2021/08/09 00:07:04;;;;;;;7.18;3.95;;;;;;;13.79;90.16;100792.84;696432;28;1527;-52
2021/08/09 00:07:25;;;;;;;6.87;3.93;;;;;;;13.89;88.79;100793.53;697145;28;1707;-51
2021/08/09 00:07:45;;;;;;;6.18;3.70;;;;;;;13.95;88.52;100795.19;696868;28;1522;-54
2021/08/09 00:08:05;;;;;;;6.40;3.60;;;;;;;13.92;88.33;100785.59;695742;28;3148;-51
2021/08/09 00:08:26;;;;;;;5.72;3.28;;;;;;;13.87;89.04;100781.31;696691;28;1407;-52
2021/08/09 00:08:46;;;;;;;6.50;3.70;;;;;;;13.95;89.34;100790.81;696576;28;4283;-54
2021/08/09 00:09:06;;;;;;;7.70;3.70;;;;;;;14.00;87.67;100789.84;697661;28;1444;-55
2021/08/09 00:09:27;;;;;;;6.95;3.60;;;;;;;13.98;87.52;100787.25;697111;28;1311;-52
2021/08/09 00:09:48;;;;;;;6.05;3.63;;;;;;;13.96;88.20;100787.28;696652;28;4657;-51
2021/08/09 00:10:08;;;;;;;5.83;3.50;;;;;;;13.93;88.39;100789.13;697558;28;2329;-52
2021/08/09 00:10:30;;;;;;;6.90;3.75;;;;;;;13.95;88.10;100789.94;696001;28;1567;-53
2021/08/09 00:10:51;;;;;;;6.70;3.58;;;;;;;14.04;88.09;100784.53;697220;28;3831;-53
2021/08/09 00:11:11;;;;;;;7.43;3.60;;;;;;;14.07;88.11;100791.50;695700;28;3240;-54
2021/08/09 00:11:31;;;;;;;7.65;3.65;;;;;;;14.09;87.72;100789.72;693549;28;1361;-54
2021/08/09 00:11:52;;;;;;;7.57;3.70;;;;;;;14.09;87.75;100785.31;694727;28;1597;-54
2021/08/09 00:12:12;;;;;;;6.93;3.63;;;;;;;14.11;86.61;100791.44;693893;28;2361;-52
2021/08/09 00:12:32;;;;;;;6.70;3.50;;;;;;;14.06;87.56;100788.00;691793;28;1530;-51
2021/08/09 00:12:56;;;;;;;6.50;3.50;;;;;;;14.11;87.56;100788.78;688174;28;4381;-53
2021/08/09 00:13:17;;;;;;;6.57;3.38;;;;;;;14.16;86.45;100790.47;690275;28;1352;-55
2021/08/09 00:13:37;;;;;;;5.95;3.20;;;;;;;14.11;86.59;100786.16;689081;28;3519;-55
2021/08/09 00:13:57;;;;;;;5.93;3.50;;;;;;;14.08;86.79;100790.59;688336;28;1470;-51
2021/08/09 00:14:18;;;;;;;7.53;3.47;;;;;;;14.07;86.02;100788.88;689016;28;4204;-53
2021/08/09 00:14:39;;;;;;;6.88;3.30;;;;;;;14.06;87.12;100795.03;692083;28;985;-55
2021/08/09 00:15:00;;;;;;;6.10;3.30;;;;;;;14.02;87.03;100790.72;694237;28;1742;-51
2021/08/09 00:15:20;;;;;;;5.57;3.40;;;;;;;14.01;86.20;100784.59;693542;28;1202;-51
2021/08/09 00:15:40;;;;;;;7.20;3.40;;;;;;;14.03;85.66;100784.56;692994;28;4349;-54
2021/08/09 00:16:01;;;;;;;5.93;3.40;;;;;;;14.04;85.61;100791.53;692936;28;1071;-52
2021/08/09 00:16:21;;;;;;;6.13;3.57;;;;;;;14.03;85.60;100787.22;694336;28;1239;-51
2021/08/09 00:16:41;;;;;;;6.00;3.50;;;;;;;14.02;86.97;100793.34;692189;28;3806;-52
2021/08/09 00:17:02;;;;;;;6.63;3.80;;;;;;;14.00;87.36;100789.84;692711;28;1245;-50
2021/08/09 00:17:22;;;;;;;6.23;3.53;;;;;;;13.99;87.28;100785.53;693494;28;1455;-52
2021/08/09 00:17:43;;;;;;;6.33;3.30;;;;;;;13.92;88.60;100790.88;694643;28;1481;-51
2021/08/09 00:18:03;;;;;;;7.83;3.50;;;;;;;13.91;88.15;100788.25;694026;28;1268;-51
2021/08/09 00:18:25;;;;;;;7.63;3.60;;;;;;;13.92;87.61;100793.50;693474;28;1914;-54
2021/08/09 00:18:46;;;;;;;6.75;3.78;;;;;;;13.91;89.14;100796.16;693791;28;4329;-52
2021/08/09 00:19:07;;;;;;;5.32;3.72;;;;;;;13.91;88.19;100786.50;693314;28;1170;-52
2021/08/09 00:19:27;;;;;;;5.90;3.60;;;;;;;13.92;87.65;100788.22;694811;28;3692;-53
2021/08/09 00:19:48;;;;;;;6.63;3.70;;;;;;;13.91;89.07;100791.75;696283;28;4134;-53
2021/08/09 00:20:09;;;;;;;7.55;3.83;;;;;;;13.87;89.33;100792.69;695344;28;1281;-53
2021/08/09 00:20:29;;;;;;;5.78;3.70;;;;;;;13.85;88.97;100794.50;695955;28;1064;-52
2021/08/09 00:20:52;;;;;;;7.20;3.63;;;;;;;13.86;88.38;100795.34;697565;28;1188;-52
2021/08/09 00:21:14;;;;;;;6.90;3.80;;;;;;;13.85;88.02;100793.63;695943;28;1376;-55
2021/08/09 00:21:34;;;;;;;6.47;3.65;;;;;;;13.79;89.58;100798.09;692983;28;1036;-51
2021/08/09 00:21:57;;;;;;;6.97;3.80;;;;;;;13.78;89.11;100800.75;692672;28;4333;-54
2021/08/09 00:22:17;;;;;;;5.55;3.60;;;;;;;13.76;89.04;100803.41;691352;28;3621;-55
2021/08/09 00:22:38;;;;;;;5.60;3.50;;;;;;;13.76;89.41;100798.16;690919;28;1271;-52
2021/08/09 00:22:58;;;;;;;5.88;3.70;;;;;;;13.75;88.46;100801.66;691255;28;3979;-51
2021/08/09 00:23:21;;;;;;;5.43;3.40;;;;;;;13.77;89.26;100804.25;691565;28;1342;-55
2021/08/09 00:23:42;;;;;;;6.50;3.67;;;;;;;13.73;89.32;100797.31;693314;28;1209;-54
2021/08/09 00:24:02;;;;;;;6.93;3.80;;;;;;;13.75;88.59;100795.53;694315;28;1797;-51
2021/08/09 00:24:23;;;;;;;6.65;3.45;;;;;;;13.77;87.65;100791.97;697393;28;1200;-55
2021/08/09 00:24:43;;;;;;;5.73;3.30;;;;;;;13.79;88.11;100791.97;696254;28;4654;-54
2021/08/09 00:25:04;;;;;;;6.28;3.50;;;;;;;13.78;89.22;100795.50;696864;28;4145;-54
2021/08/09 00:25:24;;;;;;;5.90;3.75;;;;;;;13.78;88.97;100800.75;695144;28;1848;-55
2021/08/09 00:25:45;;;;;;;6.83;3.60;;;;;;;13.75;88.91;100796.41;695961;28;1640;-53
2021/08/09 00:26:05;;;;;;;7.72;3.80;;;;;;;13.76;89.21;100794.63;698036;28;1269;-53
2021/08/09 00:26:29;;;;;;;8.03;3.90;;;;;;;13.79;90.16;100800.72;696990;28;964;-55
2021/08/09 00:26:49;;;;;;;8.65;3.85;;;;;;;13.76;89.43;100792.88;697139;28;1476;-52
2021/08/09 00:27:10;;;;;;;7.22;3.70;;;;;;;13.79;88.39;100802.47;694537;28;1521;-52
2021/08/09 00:27:31;;;;;;;6.13;3.78;;;;;;;13.82;88.75;100801.53;694154;28;1504;-54
2021/08/09 00:27:52;;;;;;;6.60;3.83;;;;;;;13.81;88.60;100799.84;692751;28;4500;-54
2021/08/09 00:28:12;;;;;;;6.32;3.60;;;;;;;13.79;89.89;100794.59;690440;28;1695;-54
2021/08/09 00:28:33;;;;;;;6.40;3.93;;;;;;;13.74;90.68;100799.06;692125;28;4167;-51
2021/08/09 00:28:53;;;;;;;7.30;3.70;;;;;;;13.74;88.81;100804.31;690866;28;1334;-52
2021/08/09 00:29:13;;;;;;;6.77;3.60;;;;;;;13.75;90.25;100803.44;690972;28;985;-54
2021/08/09 00:29:34;;;;;;;7.15;3.80;;;;;;;13.74;89.18;100805.16;691913;28;1622;-54
2021/08/09 00:29:54;;;;;;;6.77;4.03;;;;;;;13.74;89.90;100805.16;689219;28;1574;-51
2021/08/09 00:30:15;;;;;;;6.55;3.72;;;;;;;13.76;88.68;100808.66;688667;28;1406;-52
2021/08/09 00:30:35;;;;;;;6.80;3.40;;;;;;;13.78;89.52;100800.75;686509;28;4108;-53
2021/08/09 00:30:56;;;;;;;7.50;3.90;;;;;;;13.75;89.67;100804.28;682755;28;5416;-55
2021/08/09 00:31:16;;;;;;;6.87;3.73;;;;;;;13.75;88.07;100796.41;686309;28;1550;-51
2021/08/09 00:31:37;;;;;;;6.43;3.42;;;;;;;13.79;87.65;100791.97;688446;28;1338;-53
2021/08/09 00:31:57;;;;;;;7.13;3.50;;;;;;;13.83;87.40;100798.91;686811;28;1269;-55
2021/08/09 00:32:18;;;;;;;7.60;3.57;;;;;;;13.85;86.39;100799.75;688878;28;1346;-54
2021/08/09 00:32:39;;;;;;;8.18;3.70;;;;;;;13.89;86.44;100800.56;689441;28;1583;-52
2021/08/09 00:33:00;;;;;;;7.17;3.63;;;;;;;13.91;87.75;100798.78;689287;28;1475;-54
2021/08/09 00:33:20;;;;;;;7.20;3.83;;;;;;;13.88;88.29;100799.69;688467;28;1184;-51
2021/08/09 00:33:40;;;;;;;8.00;3.93;;;;;;;13.85;89.44;100797.13;690392;28;4753;-51
2021/08/09 00:34:02;;;;;;;6.25;3.67;;;;;;;13.86;87.60;100798.84;688999;28;1450;-54
2021/08/09 00:34:22;;;;;;;6.53;3.33;;;;;;;13.88;87.45;100798.84;689683;28;4285;-51
2021/08/09 00:34:42;;;;;;;7.37;3.60;;;;;;;14.01;88.13;100799.50;692596;28;1323;-55
2021/08/09 00:35:04;;;;;;;6.40;3.60;;;;;;;14.01;86.94;100802.13;689315;28;1906;-51
2021/08/09 00:35:25;;;;;;;6.07;3.28;;;;;;;14.02;86.11;100803.84;687439;28;1665;-52
2021/08/09 00:35:46;;;;;;;5.95;3.42;;;;;;;14.02;85.74;100798.59;690202;28;941;-55
2021/08/09 00:36:07;;;;;;;6.03;3.42;;;;;;;14.04;85.39;100802.06;689878;28;1356;-54
2021/08/09 00:36:32;;;;;;;7.20;3.20;;;;;;;14.06;85.00;100800.28;688836;28;4015;-52
2021/08/09 00:36:52;;;;;;;6.88;3.30;;;;;;;14.07;84.99;100797.63;689978;28;4568;-55
2021/08/09 00:37:13;;;;;;;7.27;3.70;;;;;;;14.04;87.34;100796.81;691844;28;1931;-52
2021/08/09 00:37:34;;;;;;;6.40;3.70;;;;;;;14.00;87.79;100798.63;689332;28;1993;-53
2021/08/09 00:37:55;;;;;;;7.18;3.80;;;;;;;13.93;88.59;100800.50;688901;28;1927;-54
2021/08/09 00:38:18;;;;;;;7.80;3.67;;;;;;;13.91;87.34;100799.63;691022;28;1147;-54
2021/08/09 00:38:38;;;;;;;5.88;3.42;;;;;;;13.91;86.76;100797.00;689249;28;2015;-53
2021/08/09 00:38:59;;;;;;;5.28;3.05;;;;;;;13.94;85.97;100807.50;689226;28;3143;-51
2021/08/09 00:39:20;;;;;;;5.17;3.20;;;;;;;13.95;87.16;100800.47;687054;28;3707;-51
2021/08/09 00:39:40;;;;;;;5.72;3.45;;;;;;;13.93;87.35;100799.63;686969;28;4712;-54
2021/08/09 00:40:04;;;;;;;6.68;3.67;;;;;;;13.91;87.48;100797.00;688618;28;1279;-55
2021/08/09 00:40:25;;;;;;;6.45;3.58;;;;;;;14.03;87.01;100798.56;686435;28;1363;-54
2021/08/09 00:40:46;;;;;;;6.45;3.47;;;;;;;14.12;86.02;100800.16;684097;28;1808;-54
2021/08/09 00:41:06;;;;;;;6.72;3.42;;;;;;;14.13;85.21;100797.50;685626;28;1277;-51
2021/08/09 00:41:27;;;;;;;7.70;3.47;;;;;;;14.16;84.69;100793.09;687404;28;1854;-56
2021/08/09 00:41:47;;;;;;;7.73;3.60;;;;;;;14.15;85.23;100800.13;686618;28;1253;-55
2021/08/09 00:42:08;;;;;;;6.20;3.10;;;;;;;14.13;85.83;100802.75;684066;28;3698;-55
2021/08/09 00:42:30;;;;;;;6.13;3.40;;;;;;;14.07;86.58;100794.16;684632;28;3866;-54
2021/08/09 00:42:51;;;;;;;6.20;3.40;;;;;;;14.00;86.89;100789.84;685745;28;5578;-53
2021/08/09 00:43:11;;;;;;;6.40;3.40;;;;;;;13.93;87.86;100800.50;684421;28;1164;-50
2021/08/09 00:43:32;;;;;;;7.03;3.73;;;;;;;13.88;87.96;100797.06;686872;28;1985;-53
2021/08/09 00:43:53;;;;;;;7.35;4.00;;;;;;;13.86;87.82;100793.59;684824;28;1190;-55
2021/08/09 00:44:15;;;;;;;6.55;3.47;;;;;;;13.87;87.00;100799.72;687292;28;1279;-56
2021/08/09 00:44:36;;;;;;;6.68;3.80;;;;;;;13.89;86.04;100803.19;687546;28;1704;-56
2021/08/09 00:44:57;;;;;;;6.55;3.40;;;;;;;13.85;89.26;100802.38;686563;28;3953;-53
2021/08/09 00:45:18;;;;;;;5.73;3.47;;;;;;;13.84;89.13;100795.38;688768;28;3499;-51
2021/08/09 00:45:39;;;;;;;5.35;3.72;;;;;;;13.77;89.92;100805.09;688570;28;4436;-55
2021/08/09 00:46:04;;;;;;;6.83;3.80;;;;;;;13.76;88.69;100802.50;688497;28;1899;-55
2021/08/09 00:46:25;;;;;;;5.53;3.50;;;;;;;13.69;90.17;100806.13;686372;28;1601;-52
2021/08/09 00:46:47;;;;;;;6.10;3.50;;;;;;;13.68;89.54;100804.38;685208;28;1148;-54
2021/08/09 00:47:09;;;;;;;5.88;3.50;;;;;;;13.65;89.68;100805.28;684385;28;1280;-55
2021/08/09 00:47:29;;;;;;;5.95;3.40;;;;;;;13.67;89.35;100810.56;685363;28;2305;-52
2021/08/09 00:47:50;;;;;;;7.43;3.78;;;;;;;13.66;89.13;100807.03;685918;28;3984;-56
2021/08/09 00:48:10;;;;;;;7.00;3.57;;;;;;;13.68;88.20;100809.63;686095;28;4905;-55
2021/08/09 00:48:35;;;;;;;6.90;3.70;;;;;;;13.63;89.90;100797.44;686425;28;1669;-54
2021/08/09 00:48:57;;;;;;;7.35;4.05;;;;;;;13.65;89.43;100805.28;688277;28;4587;-53
2021/08/09 00:49:18;;;;;;;7.03;3.97;;;;;;;13.63;90.54;100812.34;686393;28;1348;-55
2021/08/09 00:49:39;;;;;;;6.47;3.80;;;;;;;13.63;89.35;100805.31;686809;28;1444;-54
2021/08/09 00:50:01;;;;;;;6.90;3.70;;;;;;;13.66;89.09;100803.56;685705;28;1278;-55
2021/08/09 00:50:23;;;;;;;7.38;3.80;;;;;;;13.70;88.52;100805.25;680896;28;1674;-55
2021/08/09 00:50:44;;;;;;;7.68;3.70;;;;;;;13.73;87.14;100807.81;681142;28;4339;-53
2021/08/09 00:51:08;;;;;;;6.83;3.43;;;;;;;13.77;87.00;100804.25;682251;28;2023;-53
2021/08/09 00:51:29;;;;;;;7.25;3.38;;;;;;;13.78;88.63;100813.88;682816;28;1794;-51
2021/08/09 00:51:55;;;;;;;7.50;3.50;;;;;;;13.76;88.24;100811.28;685619;28;4545;-55
2021/08/09 00:52:17;;;;;;;7.70;3.67;;;;;;;13.77;87.20;100810.38;685381;28;1329;-57
2021/08/09 00:52:38;;;;;;;6.07;3.38;;;;;;;13.80;86.81;100806.81;688872;28;1493;-53
2021/08/09 00:52:59;;;;;;;6.05;3.63;;;;;;;13.81;87.15;100811.19;689817;28;1467;-52
2021/08/09 00:53:21;;;;;;;7.05;3.58;;;;;;;13.80;87.80;100804.19;688161;28;3732;-51
2021/08/09 00:53:41;;;;;;;6.90;3.40;;;;;;;13.80;87.08;100804.19;683775;28;3834;-53
2021/08/09 00:54:04;;;;;;;7.25;3.33;;;;;;;13.83;87.45;100811.16;685751;28;1919;-54
2021/08/09 00:54:26;;;;;;;6.47;3.53;;;;;;;13.87;87.19;100810.22;683479;28;1816;-53
2021/08/09 00:54:47;;;;;;;6.38;3.80;;;;;;;13.87;86.63;100808.47;683231;28;4343;-53
2021/08/09 00:55:08;;;;;;;7.20;3.63;;;;;;;13.89;86.31;100808.47;684368;28;1526;-53
2021/08/09 00:55:28;;;;;;;7.05;3.38;;;;;;;13.89;86.49;100811.09;687560;28;1881;-55
2021/08/09 00:55:51;;;;;;;6.55;3.25;;;;;;;13.89;86.39;100811.94;690001;28;1587;-52
2021/08/09 00:56:12;;;;;;;7.07;3.92;;;;;;;13.90;87.12;100816.31;686572;28;4050;-54
2021/08/09 00:56:33;;;;;;;6.47;3.30;;;;;;;13.89;87.59;100808.47;685929;28;3742;-55
2021/08/09 00:56:54;;;;;;;5.43;3.33;;;;;;;13.93;86.97;100812.78;681570;28;1924;-51
2021/08/09 00:57:15;;;;;;;6.18;3.10;;;;;;;13.94;85.78;100818.00;684743;28;1608;-55
2021/08/09 00:57:37;;;;;;;5.80;3.33;;;;;;;13.94;86.59;100811.84;684759;28;1406;-55
2021/08/09 00:57:59;;;;;;;6.13;3.28;;;;;;;13.94;86.95;100815.38;686340;28;4948;-55
2021/08/09 00:58:24;;;;;;;6.53;3.55;;;;;;;13.88;88.29;100817.22;685452;28;1985;-51
2021/08/09 00:58:44;;;;;;;7.10;3.70;;;;;;;13.84;88.98;100810.28;684917;28;1527;-53
2021/08/09 00:59:05;;;;;;;7.40;3.78;;;;;;;13.81;88.26;100824.34;681310;28;4253;-56
2021/08/09 00:59:27;;;;;;;6.17;3.73;;;;;;;13.80;87.80;100814.72;682345;28;1492;-54
2021/08/09 00:59:48;;;;;;;6.93;3.70;;;;;;;13.81;87.41;100813.81;684652;28;1619;-54
2021/08/09 01:00:09;;;;;;;7.37;3.60;;;;;;;13.81;87.64;100815.59;683874;28;1232;-53
2021/08/09 01:00:35;;;;;;;7.47;3.58;;;;;;;13.74;88.70;100815.69;681817;28;1659;-51
2021/08/09 01:00:55;;;;;;;7.67;3.60;;;;;;;13.79;88.72;100818.25;683700;28;4568;-52
2021/08/09 01:01:16;;;;;;;7.20;3.47;;;;;;;13.88;87.96;100818.09;685758;28;1497;-55
2021/08/09 01:01:42;;;;;;;5.97;3.42;;;;;;;13.92;87.23;100814.50;685101;28;1729;-55
2021/08/09 01:02:03;;;;;;;6.95;3.70;;;;;;;13.92;86.65;100814.50;682733;28;4233;-51
2021/08/09 01:02:23;;;;;;;6.73;3.33;;;;;;;13.90;86.88;100818.94;681040;28;1575;-53
2021/08/09 01:02:44;;;;;;;6.57;3.30;;;;;;;13.88;86.34;100812.81;684039;28;1766;-53
2021/08/09 01:03:06;;;;;;;5.88;3.20;;;;;;;13.88;86.79;100817.22;681211;28;1395;-55
2021/08/09 01:03:27;;;;;;;6.72;3.63;;;;;;;13.84;87.76;100815.53;681602;28;1325;-54
2021/08/09 01:03:47;;;;;;;6.68;3.33;;;;;;;13.84;86.12;100816.41;681803;28;4595;-53
2021/08/09 01:04:10;;;;;;;6.87;3.27;;;;;;;13.86;86.79;100819.88;682830;28;1420;-53
2021/08/09 01:04:32;;;;;;;6.65;3.40;;;;;;;13.87;86.26;100815.47;683589;28;1609;-53
2021/08/09 01:04:53;;;;;;;7.50;3.70;;;;;;;13.88;87.48;100818.09;684366;28;4109;-56
2021/08/09 01:05:14;;;;;;;6.88;3.35;;;;;;;13.84;88.44;100816.41;684758;28;4531;-54
2021/08/09 01:05:39;;;;;;;6.60;3.40;;;;;;;13.80;87.93;100817.34;688167;28;1367;-51
2021/08/09 01:06:02;;;;;;;5.97;3.22;;;;;;;13.79;87.65;100821.72;688036;28;1675;-55
2021/08/09 01:06:24;;;;;;;6.95;3.55;;;;;;;13.87;86.96;100818.13;688087;28;1558;-52
2021/08/09 01:06:48;;;;;;;6.32;3.28;;;;;;;13.89;86.27;100814.56;689000;28;4659;-54
2021/08/09 01:07:08;;;;;;;5.60;3.13;;;;;;;13.90;86.13;100810.16;690346;28;1208;-53
2021/08/09 01:07:58;;;;;;;5.88;3.30;;;;;;;13.96;85.04;100808.31;687231;28;4188;-51
2021/08/09 01:08:37;;;;;;;5.85;3.38;;;;;;;14.22;85.42;100812.28;684118;28;4317;-54
2021/08/09 01:09:21;;;;;;;6.30;3.20;;;;;;;14.38;84.35;100806.75;685251;28;1532;-52
2021/08/09 01:09:53;;;;;;;5.72;3.47;;;;;;;14.47;83.61;100819.72;686274;28;4596;-51
2021/08/09 01:10:25;;;;;;;5.95;3.08;;;;;;;14.43;83.07;100815.41;685681;28;3850;-53
2021/08/09 01:11:02;;;;;;;6.55;3.28;;;;;;;14.30;83.89;100815.63;683614;28;1515;-53
2021/08/09 01:11:55;;;;;;;6.65;3.13;;;;;;;14.26;83.13;100818.31;685840;28;1628;-55
2021/08/09 01:12:27;;;;;;;6.50;3.20;;;;;;;14.17;84.76;100815.88;686083;28;1759;-55
2021/08/09 01:12:58;;;;;;;6.13;3.05;;;;;;;14.16;84.36;100819.41;686495;28;4478;-55
2021/08/09 01:13:37;;;;;;;8.68;3.58;;;;;;;14.11;84.04;100816.84;686476;28;3680;-53
2021/08/09 01:14:21;;;;;;;5.80;3.20;;;;;;;14.05;84.76;100817.84;689225;28;1125;-52
2021/08/09 01:14:50;;;;;;;7.07;3.20;;;;;;;13.93;86.62;100816.25;691970;28;1528;-52
2021/08/09 01:15:19;;;;;;;7.20;3.33;;;;;;;13.98;85.81;100813.53;691159;28;1380;-55
2021/08/09 01:15:46;;;;;;;5.47;3.22;;;;;;;13.95;85.91;100822.34;689668;28;4589;-51
2021/08/09 01:16:10;;;;;;;5.97;3.20;;;;;;;13.91;86.25;100811.91;687704;28;3481;-53
2021/08/09 01:16:37;;;;;;;5.88;3.10;;;;;;;13.87;86.26;100818.97;687145;28;1757;-55
2021/08/09 01:17:00;;;;;;;6.05;2.85;;;;;;;13.82;86.50;100818.19;687058;28;1249;-55
2021/08/09 01:17:27;;;;;;;7.22;3.30;;;;;;;13.78;87.13;100816.50;684373;28;1288;-53
2021/08/09 01:17:49;;;;;;;6.45;3.45;;;;;;;13.88;86.24;100810.19;686346;28;1493;-52
2021/08/09 01:18:15;;;;;;;6.15;3.40;;;;;;;14.01;84.95;100812.63;683987;28;1854;-55
2021/08/09 01:18:37;;;;;;;5.90;3.00;;;;;;;14.02;84.87;100812.59;681182;28;2123;-55
2021/08/09 01:19:01;;;;;;;7.05;3.28;;;;;;;13.93;85.90;100818.03;683783;28;4996;-52
2021/08/09 01:19:49;;;;;;;7.38;3.40;;;;;;;13.90;85.65;100818.06;683952;28;1572;-54
2021/08/09 01:20:43;;;;;;;5.47;3.20;;;;;;;13.72;87.71;100821.84;686646;28;1453;-55
2021/08/09 01:21:05;;;;;;;5.50;3.20;;;;;;;13.62;87.82;100815.84;687837;28;1717;-52
2021/08/09 01:21:30;;;;;;;5.82;3.25;;;;;;;13.67;86.78;100821.06;692569;28;1652;-54
2021/08/09 01:21:56;;;;;;;5.38;3.20;;;;;;;13.67;86.82;100829.81;691501;28;4492;-51
2021/08/09 01:22:39;;;;;;;5.78;3.15;;;;;;;13.69;85.75;100827.16;688366;28;1480;-54
2021/08/09 01:23:28;;;;;;;7.55;3.20;;;;;;;13.70;87.32;100824.50;689359;28;1457;-54
2021/08/09 01:24:07;;;;;;;6.28;3.00;;;;;;;13.69;87.55;100827.16;689297;28;1441;-53
2021/08/09 01:24:34;;;;;;;5.30;3.13;;;;;;;13.61;87.54;100827.28;688077;28;3382;-54
2021/08/09 01:25:40;;;;;;;5.93;3.40;;;;;;;13.56;87.93;100826.47;686899;28;4318;-52
2021/08/09 01:26:35;;;;;;;6.15;3.58;;;;;;;13.55;87.45;100819.47;680609;28;1927;-51
2021/08/09 01:27:22;;;;;;;8.13;3.45;;;;;;;13.58;86.56;100829.94;688425;28;1550;-55
2021/08/09 01:27:47;;;;;;;6.40;3.10;;;;;;;13.63;85.40;100831.59;685310;28;4634;-52
2021/08/09 01:28:09;;;;;;;5.97;3.13;;;;;;;13.66;85.99;100821.94;688666;28;1319;-53
2021/08/09 01:28:32;;;;;;;6.82;3.00;;;;;;;13.66;86.66;100827.19;687784;28;1593;-55
2021/08/09 01:28:56;;;;;;;7.68;3.20;;;;;;;13.63;87.07;100828.09;689692;28;1292;-55
2021/08/09 01:29:22;;;;;;;6.60;3.15;;;;;;;13.64;85.53;100829.84;688972;28;1530;-54
2021/08/09 01:29:44;;;;;;;5.90;3.30;;;;;;;13.58;87.48;100825.56;690107;28;2011;-54
2021/08/09 01:30:09;;;;;;;6.03;3.17;;;;;;;13.54;86.98;100829.13;686924;28;1481;-58
2021/08/09 01:30:31;;;;;;;5.68;3.22;;;;;;;13.54;87.62;100828.22;685780;28;4059;-55
2021/08/09 01:30:55;;;;;;;6.00;3.25;;;;;;;13.56;86.51;100834.34;684251;28;5309;-55
2021/08/09 01:31:17;;;;;;;5.80;2.90;;;;;;;13.59;86.23;100829.03;681354;28;1497;-53
2021/08/09 01:31:44;;;;;;;5.80;3.20;;;;;;;13.65;85.61;100828.09;683938;28;1405;-55
2021/08/09 01:32:10;;;;;;;5.57;3.03;;;;;;;13.58;87.79;100830.81;689590;28;1385;-56
2021/08/09 01:32:34;;;;;;;6.10;3.20;;;;;;;13.58;87.06;100830.81;689425;28;1688;-57
2021/08/09 01:32:55;;;;;;;6.63;3.30;;;;;;;13.56;87.92;100829.09;684233;28;4001;-53
2021/08/09 01:33:17;;;;;;;7.97;3.28;;;;;;;13.58;87.43;100830.81;680917;28;3081;-54
2021/08/09 01:33:39;;;;;;;7.55;3.30;;;;;;;13.54;88.68;100833.50;684978;28;4344;-54
2021/08/09 01:33:59;;;;;;;7.20;3.25;;;;;;;13.54;87.60;100838.75;686234;28;1582;-56
2021/08/09 01:34:21;;;;;;;5.55;3.03;;;;;;;13.54;87.72;100831.75;688530;28;1489;-55
2021/08/09 01:34:43;;;;;;;5.15;2.97;;;;;;;13.55;88.25;100835.22;690215;28;1672;-53
2021/08/09 01:35:06;;;;;;;5.88;3.13;;;;;;;13.51;88.69;100841.41;688537;28;2390;-55
2021/08/09 01:35:29;;;;;;;5.80;3.35;;;;;;;13.42;89.04;100830.16;687903;28;1917;-55
2021/08/09 01:35:55;;;;;;;6.13;3.33;;;;;;;13.38;89.08;100832.84;686550;28;3035;-55
2021/08/09 01:36:16;;;;;;;6.30;3.40;;;;;;;13.35;89.53;100833.75;688150;28;4298;-53
2021/08/09 01:36:44;;;;;;;7.00;3.30;;;;;;;13.31;89.51;100841.66;686782;28;4470;-55
2021/08/09 01:37:06;;;;;;;7.15;3.13;;;;;;;13.36;87.81;100832.00;687201;28;1368;-55
2021/08/09 01:37:31;;;;;;;5.78;3.03;;;;;;;13.35;89.21;100839.00;680441;28;1408;-53
2021/08/09 01:37:56;;;;;;;6.30;3.03;;;;;;;13.25;89.56;100842.59;681542;28;2068;-51
2021/08/09 01:38:22;;;;;;;6.57;3.38;;;;;;;13.23;88.85;100840.00;684592;28;2459;-53
2021/08/09 01:38:47;;;;;;;5.93;3.10;;;;;;;13.21;89.86;100841.78;684447;28;4064;-53
2021/08/09 01:39:09;;;;;;;6.50;3.42;;;;;;;13.13;89.63;100843.63;683403;28;3505;-54
2021/08/09 01:39:30;;;;;;;6.70;3.50;;;;;;;13.11;89.85;100840.16;685933;28;4468;-55
2021/08/09 01:39:50;;;;;;;7.13;3.63;;;;;;;13.08;90.29;100840.19;685921;28;4574;-56
2021/08/09 01:40:12;;;;;;;6.00;3.35;;;;;;;13.03;90.10;100842.00;684439;28;1386;-56
2021/08/09 01:40:35;;;;;;;6.80;3.30;;;;;;;12.93;90.64;100841.22;684264;28;1430;-56
2021/08/09 01:40:57;;;;;;;9.13;3.38;;;;;;;12.97;89.57;100842.94;682484;28;1585;-55
2021/08/09 01:41:24;;;;;;;6.78;3.20;;;;;;;12.93;90.87;100847.38;686376;28;1489;-55
2021/08/09 01:41:47;;;;;;;5.78;3.40;;;;;;;13.00;89.63;100842.94;687836;28;4470;-55
2021/08/09 01:42:09;;;;;;;5.25;3.25;;;;;;;13.10;89.04;100838.44;689254;28;2133;-54
2021/08/09 01:42:30;;;;;;;5.93;3.42;;;;;;;13.10;90.43;100839.28;689005;28;1941;-55
2021/08/09 01:42:52;;;;;;;6.28;3.45;;;;;;;13.09;90.41;100845.41;684465;28;4446;-52
2021/08/09 01:43:16;;;;;;;5.25;3.20;;;;;;;13.09;89.65;100852.44;683096;28;1436;-56
2021/08/09 01:43:37;;;;;;;5.20;3.30;;;;;;;12.99;90.31;100850.78;686719;28;1691;-56
2021/08/09 01:43:58;;;;;;;6.70;3.47;;;;;;;12.91;90.20;100843.88;684861;28;1433;-53
2021/08/09 01:44:19;;;;;;;6.83;3.40;;;;;;;12.95;89.86;100845.59;683594;28;3165;-51
2021/08/09 01:44:40;;;;;;;6.60;3.30;;;;;;;12.91;90.77;100845.66;684420;28;1695;-55
2021/08/09 01:45:01;;;;;;;6.55;3.40;;;;;;;12.84;91.27;100851.84;684309;28;3709;-55
2021/08/09 01:45:21;;;;;;;6.97;3.40;;;;;;;12.87;90.43;100851.81;689055;28;1557;-55
2021/08/09 01:45:43;;;;;;;6.78;3.50;;;;;;;12.99;89.40;100856.03;686883;28;4670;-55
2021/08/09 01:46:04;;;;;;;6.47;3.30;;;;;;;12.97;90.28;100848.19;689543;28;1352;-53
2021/08/09 01:46:25;;;;;;;6.47;3.63;;;;;;;12.91;90.63;100849.13;690299;28;1656;-54
2021/08/09 01:46:47;;;;;;;6.75;3.58;;;;;;;12.86;91.38;100858.84;689161;28;1507;-52
2021/08/09 01:47:07;;;;;;;7.38;3.80;;;;;;;12.84;91.00;100862.34;689423;28;2583;-53
2021/08/09 01:47:28;;;;;;;6.65;3.58;;;;;;;12.80;91.50;100855.41;688659;28;4348;-55
2021/08/09 01:47:50;;;;;;;6.25;3.60;;;;;;;12.78;91.32;100860.66;690431;28;1682;-52
2021/08/09 01:48:12;;;;;;;5.38;3.30;;;;;;;12.86;90.39;100861.44;688469;28;1487;-53
2021/08/09 01:48:36;;;;;;;6.90;3.47;;;;;;;12.90;91.36;100857.03;689576;28;1594;-56
2021/08/09 01:48:57;;;;;;;5.88;3.50;;;;;;;12.93;90.39;100863.13;687971;28;4438;-56
2021/08/09 01:49:19;;;;;;;6.65;3.38;;;;;;;12.97;90.00;100849.94;688965;28;1516;-55
2021/08/09 01:49:40;;;;;;;6.53;3.20;;;;;;;12.96;89.99;100856.97;689549;28;1438;-54
2021/08/09 01:50:02;;;;;;;7.22;3.42;;;;;;;12.91;90.67;100851.75;688902;28;3946;-55
2021/08/09 01:50:23;;;;;;;8.50;3.63;;;;;;;12.86;91.58;100855.31;683000;28;4201;-54